Flight Track Log - Related Links

Times and Time Zones

All times are in EST time to prevent confusion due to time zone crossing. See the AAL971 flight status page for this flight to view local times or setup timezone preferences in your user account.

Time Position Orientation Groundspeed Altitude Reporting Facility
EST Latitude Longitude Course Direction KTS MPH feet Rate Location/Type
Thu 07:40:20 PM 25.8006 -80.2583 10° North 177 204 1,200  Level Miami Center
Thu 07:40:38 PM 25.8011 -80.2422 88° East 162 186 1,700 1,291 Climbing Miami Center
Thu 07:41:39 PM 25.8089 -80.1756 83° East 260 299 2,900 1,800 Climbing Miami Center
Thu 07:42:48 PM 25.8256 -80.0836 79° East 274 315 5,600 2,558 Climbing Miami Center
Thu 07:43:48 PM 25.8708 -80.0086 56° Northeast 315 362 8,400 2,350 Climbing Miami Center
Thu 07:44:00 PM 26.3481 -80.0359 57° Northeast  Level Estimated
Thu 07:44:48 PM 25.9144 -79.9289 59° Northeast 315 362 10,300  Level Miami Center
Thu 07:45:00 PM 26.4586 -79.9848 10° North  Level Estimated
Thu 07:45:48 PM 25.9708 -79.8311 57° Northeast 334 384 11,100  Level Miami Center
Thu 07:46:48 PM 26.0314 -79.7286 57° Northeast 372 428 13,800 2,500 Climbing Miami Center
Thu 07:47:48 PM 26.0981 -79.6261 54° Northeast 391 450 16,100 1,908 Climbing Miami Center
Thu 07:53:40 PM 26.7468 -79.2363 54° Northeast 491 565 26,900 1,868 Climbing FlightAware ADS-B
Thu 07:54:23 PM 26.8375 -79.1971 21° North 482 555 28,400 1,769 Climbing FlightAware ADS-B
Thu 07:54:58 PM 26.9095 -79.1660 21° North 481 554 29,200 1,371 Climbing FlightAware ADS-B
Thu 07:55:33 PM 26.9832 -79.1341 21° North 483 556 30,000 1,500 Climbing FlightAware ADS-B
Thu 07:56:14 PM 27.0688 -79.0973 21° North 480 552 31,100 1,880 Climbing FlightAware ADS-B
Thu 07:56:56 PM 27.1527 -79.0609 21° North 468 539 32,600 2,049 Climbing FlightAware ADS-B
Thu 07:57:36 PM 27.2282 -79.0281 21° North 457 526 33,900 1,630 Climbing FlightAware ADS-B
Thu 07:58:17 PM 27.3139 -78.9909 21° North 455 524 34,800 1,171 Climbing FlightAware ADS-B
Thu 07:58:58 PM 27.3928 -78.9575 21° North 456 525 35,500 963 Climbing FlightAware ADS-B
Thu 07:59:38 PM 27.4772 -78.9386 11° North 448 516 36,100 988 Climbing FlightAware ADS-B
Thu 08:00:23 PM 27.5691 -78.9256 North 446 513 36,900 635 Climbing FlightAware ADS-B
Thu 08:01:03 PM 27.6447 -78.9151 North 448 516 37,000 75 Climbing FlightAware ADS-B
Thu 08:01:43 PM 27.7353 -78.9029 North 448 516 37,000  Level FlightAware ADS-B
Thu 08:03:04 PM 27.8990 -78.8793 North 447 514 37,000  Level FlightAware ADS-B
Thu 08:03:45 PM 27.9640 -78.8702 North 445 512 37,000  Level FlightAware ADS-B
Thu 08:04:26 PM 28.0692 -78.8555 North 445 512 37,000  Level FlightAware ADS-B
Thu 08:05:06 PM 28.1518 -78.8439 North 446 513 37,000  Level FlightAware ADS-B
Thu 08:05:47 PM 28.2164 -78.8347 North 447 514 37,000  Level FlightAware ADS-B
Thu 08:06:27 PM 28.3006 -78.8227 North 448 516 37,000  Level FlightAware ADS-B
Thu 08:07:16 PM 28.4182 -78.8060 North 449 517 37,000  Level FlightAware ADS-B
Thu 08:10:57 PM 28.8718 -78.7413 North 444 511 37,000 -22 Level FlightAware ADS-B
Thu 08:11:48 PM 28.9603 -78.7328 North 445 512 36,900 -54 Descending Miami Center
Thu 08:12:48 PM 29.0858 -78.7206 North 445 512 36,900  Level Miami Center
Thu 08:13:48 PM 29.2028 -78.6989 North 445 512 36,900  Level Miami Center
Thu 08:14:48 PM 29.3242 -78.6842 North 440 506 36,900  Level Miami Center
Thu 08:15:48 PM 29.4453 -78.6647 North 440 506 36,900  Level Miami Center
Thu 08:16:48 PM 29.5686 -78.6500 North 440 506 36,900  Level Miami Center
Thu 08:18:19 PM 29.7583 -78.6106 10° North 437 503 36,900  Level Jacksonville Center
Thu 08:19:19 PM 29.8853 -78.5978 North 454 522 36,900  Level Jacksonville Center
Thu 08:20:18 PM 30.0122 -78.5872 North 451 519 36,900  Level Jacksonville Center
Thu 08:21:19 PM 30.1322 -78.5531 14° North 439 505 36,900 50 Level Jacksonville Center
Thu 08:22:19 PM 30.2414 -78.5144 17° North 440 506 37,000 50 Climbing Jacksonville Center
Thu 08:23:19 PM 30.3569 -78.4731 17° North 447 514 37,000  Level Jacksonville Center
Thu 08:24:18 PM 30.4808 -78.4336 15° North 454 522 37,000  Level Jacksonville Center
Thu 08:25:19 PM 30.6067 -78.3917 16° North 456 525 37,000  Level Jacksonville Center
Thu 08:26:18 PM 30.7283 -78.3497 17° North 451 519 37,000  Level Jacksonville Center
Thu 08:27:19 PM 30.8478 -78.3075 17° North 451 519 37,000  Level Jacksonville Center
Thu 08:28:18 PM 30.9672 -78.2653 17° North 451 519 37,000 -50 Level Jacksonville Center
Thu 08:29:18 PM 31.0992 -78.2178 17° North 440 506 36,900 -50 Descending Jacksonville Center
Thu 08:30:18 PM 31.2208 -78.1775 16° North 438 504 36,900  Level Jacksonville Center
Thu 08:31:18 PM 31.3444 -78.1325 17° North 447 514 36,900  Level Jacksonville Center
Thu 08:32:18 PM 31.4642 -78.0947 15° North 452 520 36,900  Level Jacksonville Center
Thu 08:33:19 PM 31.5853 -78.0469 19° North 452 520 36,900  Level Jacksonville Center
Thu 08:34:19 PM 31.7069 -78.0042 17° North 452 520 36,900  Level Jacksonville Center
Thu 08:35:19 PM 31.8306 -77.9658 15° North 452 520 36,900  Level Jacksonville Center
Thu 08:36:19 PM 31.9542 -77.9225 17° North 452 520 36,900  Level Jacksonville Center
Thu 08:37:19 PM 32.0775 -77.8764 18° North 452 520 36,900  Level Jacksonville Center
Thu 08:38:18 PM 32.2014 -77.8403 14° North 452 520 36,900  Level Jacksonville Center
Thu 08:39:19 PM 32.3228 -77.7992 16° North 452 520 36,900  Level Jacksonville Center
Thu 08:40:19 PM 32.4483 -77.7503 18° North 452 520 36,900  Level Jacksonville Center
Thu 08:41:18 PM 32.5758 -77.7061 16° North 457 526 36,900  Level Jacksonville Center
Thu 08:42:18 PM 32.6994 -77.6644 16° North 457 526 36,900  Level Jacksonville Center
Thu 08:44:13 PM 32.9183 -77.5853 17° North 458 527 36,900  Level Washington Center
Thu 08:45:13 PM 33.0442 -77.5386 17° North 463 533 36,900  Level Washington Center
Thu 08:46:14 PM 33.1700 -77.4944 16° North 463 533 36,900  Level Washington Center
Thu 08:47:13 PM 33.2917 -77.4525 16° North 458 527 36,900  Level Washington Center
Thu 08:48:13 PM 33.4156 -77.4053 18° North 458 527 36,900  Level Washington Center
Thu 08:49:14 PM 33.5392 -77.3608 17° North 463 533 36,900  Level Washington Center
Thu 08:50:12 PM 33.6650 -77.3161 16° North 463 533 36,900  Level Washington Center
Thu 08:51:12 PM 33.7886 -77.2711 17° North 463 533 36,900  Level Washington Center
Thu 08:52:12 PM 33.9144 -77.2261 17° North 463 533 36,900 14 Level Washington Center
Thu 08:58:11 PM 34.6735 -76.9463 17° North 465 535 37,000 14 Climbing FlightAware ADS-B
Thu 08:59:19 PM 34.8143 -76.8938 17° North 463 533 37,000  Level FlightAware ADS-B
Thu 08:59:59 PM 34.8971 -76.8629 17° North 462 532 37,000  Level FlightAware ADS-B
Thu 09:00:35 PM 34.9696 -76.8357 17° North 462 532 37,000  Level FlightAware ADS-B
Thu 09:01:47 PM 35.1170 -76.7804 17° North 461 531 37,000  Level FlightAware ADS-B
Thu 09:02:39 PM 35.2240 -76.7400 17° North 461 531 37,000  Level FlightAware ADS-B
Thu 09:04:17 PM 35.4243 -76.6642 17° North 461 531 37,000  Level FlightAware ADS-B
Thu 09:04:57 PM 35.5029 -76.6344 17° North 462 532 37,000 -52 Level FlightAware ADS-B
Thu 09:06:12 PM 35.6469 -76.5786 17° North 463 533 36,900 -44 Descending Washington Center
Thu 09:07:12 PM 35.7683 -76.5342 17° North 463 533 36,900  Level Washington Center
Thu 09:08:13 PM 35.8939 -76.4842 18° North 463 533 36,900  Level Washington Center
Thu 09:09:15 PM 36.0175 -76.4394 16° North 463 533 36,900  Level Washington Center
Thu 09:10:12 PM 36.1389 -76.3919 18° North 458 527 36,900 18 Level Washington Center
Thu 09:14:41 PM 36.6910 -76.1751 18° North 459 528 37,000 12 Climbing FlightAware ADS-B (KWWD)
Thu 09:18:26 PM 37.1463 -75.9953 17° North 460 529 37,000  Level FlightAware ADS-B (KWWD)
Thu 09:19:23 PM 37.2610 -75.9496 18° North 457 526 37,000  Level FlightAware ADS-B (KWWD)
Thu 09:20:02 PM 37.3396 -75.9183 18° North 454 522 37,000  Level FlightAware ADS-B (KWWD)
Thu 09:20:40 PM 37.4162 -75.8874 18° North 453 521 37,000  Level FlightAware ADS-B (KWWD)
Thu 09:21:24 PM 37.5032 -75.8527 18° North 443 510 37,000  Level FlightAware ADS-B (KWWD)
Thu 09:22:05 PM 37.5845 -75.8200 18° North 443 510 37,000  Level FlightAware ADS-B (KWWD)
Thu 09:22:45 PM 37.6645 -75.7878 18° North 443 510 37,000  Level FlightAware ADS-B (KWWD)
Thu 09:23:20 PM 37.7328 -75.7604 18° North 442 509 37,000  Level FlightAware ADS-B (KWWD)
Thu 09:24:05 PM 37.8225 -75.7240 18° North 442 509 37,000  Level FlightAware ADS-B (KWWD)
Thu 09:24:44 PM 37.8987 -75.6929 18° North 442 509 37,000  Level FlightAware ADS-B (KWWD)
Thu 09:25:26 PM 37.9823 -75.6589 18° North 441 507 37,000  Level FlightAware ADS-B (KWWD)
Thu 09:26:19 PM 38.0792 -75.6194 18° North 448 516 37,000  Level FlightAware ADS-B (EGAA / BFS)
Thu 09:26:52 PM 38.1510 -75.5902 18° North 448 516 37,000  Level FlightAware ADS-B (EGAA / BFS)
Thu 09:27:24 PM 38.2155 -75.5638 18° North 442 509 37,000  Level FlightAware ADS-B (KWWD)
Thu 09:28:03 PM 38.2934 -75.5318 18° North 442 509 37,000  Level FlightAware ADS-B (KWWD)
Thu 09:28:27 PM 38.3386 -75.5113 20° North 458 527 37,000  Level FlightAware ADS-B (EGAA / BFS)
Thu 09:29:06 PM 38.4137 -75.4605 28° Northeast 469 540 37,000  Level FlightAware ADS-B (KWWD)
Thu 09:29:41 PM 38.4622 -75.4248 30° Northeast 467 537 37,000  Level FlightAware ADS-B (EGAA / BFS)
Thu 09:30:26 PM 38.5636 -75.3501 30° Northeast 466 536 37,000  Level FlightAware ADS-B (KWWD)
Thu 09:31:03 PM 38.6298 -75.3012 30° Northeast 466 536 37,000  Level FlightAware ADS-B (KWWD)
Thu 09:31:34 PM 38.6817 -75.2629 30° Northeast 466 536 37,000  Level FlightAware ADS-B (EGAA / BFS)
Thu 09:32:05 PM 38.7478 -75.2139 30° Northeast 467 537 37,000  Level FlightAware ADS-B (KWWD)
Thu 09:32:42 PM 38.8177 -75.1620 30° Northeast 468 539 37,000  Level FlightAware ADS-B (EGAA / BFS)
Thu 09:33:35 PM 38.9169 -75.0883 30° Northeast 469 540 37,000  Level FlightAware ADS-B (EGAA / BFS)
Thu 09:34:17 PM 38.9889 -75.0345 30° Northeast 470 541 37,000  Level FlightAware ADS-B (EGAA / BFS)
Thu 09:34:47 PM 39.0515 -74.9877 30° Northeast 470 541 37,000  Level FlightAware ADS-B
Thu 09:35:21 PM 39.1157 -74.9397 30° Northeast 464 534 37,000  Level FlightAware ADS-B (KWWD)
Thu 09:35:31 PM 39.1336 -74.9263 30° Northeast 466 536 37,000  Level FlightAware ADS-B (KWWD)
Thu 09:36:03 PM 39.1960 -74.8793 30° Northeast 467 537 37,000  Level FlightAware ADS-B (KWWD)
Thu 09:36:44 PM 39.2734 -74.8210 30° Northeast 470 541 37,000  Level FlightAware ADS-B (KWWD)
Thu 09:37:19 PM 39.3396 -74.7710 30° Northeast 478 550 37,000  Level FlightAware ADS-B
Thu 09:38:05 PM 39.4273 -74.7045 30° Northeast 471 542 37,000  Level FlightAware ADS-B (KWWD)
Thu 09:38:43 PM 39.4996 -74.6496 30° Northeast 471 542 37,000  Level FlightAware ADS-B (KWWD)
Thu 09:39:27 PM 39.5830 -74.5861 30° Northeast 471 542 37,000  Level FlightAware ADS-B (KWWD)
Thu 09:39:42 PM 39.6087 -74.5666 30° Northeast 478 550 37,000  Level FlightAware ADS-B
Thu 09:40:27 PM 39.6951 -74.5006 30° Northeast 471 542 37,000  Level FlightAware ADS-B (KWWD)
Thu 09:41:07 PM 39.7745 -74.4397 31° Northeast 470 541 37,000  Level FlightAware ADS-B (KWWD)
Thu 09:41:45 PM 39.8455 -74.3852 31° Northeast 468 539 37,000  Level FlightAware ADS-B (KWWD)
Thu 09:42:24 PM 39.9195 -74.3281 31° Northeast 466 536 37,000  Level FlightAware ADS-B (KWWD)
Thu 09:43:05 PM 39.9956 -74.2695 31° Northeast 466 536 37,000  Level FlightAware ADS-B (KWWD)
Thu 09:43:47 PM 40.0745 -74.2085 31° Northeast 473 544 37,000  Level FlightAware ADS-B (KWWD)
Thu 09:44:22 PM 40.1412 -74.1565 31° Northeast 472 543 37,000  Level FlightAware ADS-B (KSNC)
Thu 09:45:07 PM 40.2245 -74.0917 31° Northeast 472 543 37,000  Level FlightAware ADS-B (KWWD)
Thu 09:45:42 PM 40.2904 -74.0402 31° Northeast 474 545 37,000 -158 Level FlightAware ADS-B (KSNC)
Thu 09:46:23 PM 40.3618 -73.9688 37° Northeast 487 560 36,800 -578 Descending FlightAware ADS-B (KSNC)
Thu 09:47:05 PM 40.4345 -73.8918 39° Northeast 489 563 36,200 -1,176 Descending FlightAware ADS-B (KSNC)
Thu 09:47:14 PM 40.4535 -73.8718 39° Northeast 489 563 35,800 -2,093 Descending FlightAware ADS-B (KSNC)
Thu 09:47:48 PM 40.5132 -73.8089 39° Northeast 494 568 34,700 -2,261 Descending FlightAware ADS-B (KWWD)
Thu 09:48:23 PM 40.5765 -73.7421 39° Northeast 501 577 33,200 -2,571 Descending FlightAware ADS-B (KWWD)
Thu 09:49:05 PM 40.6528 -73.6613 39° Northeast 511 588 31,400 -2,630 Descending FlightAware ADS-B (KSNC)
Thu 09:49:36 PM 40.7077 -73.6030 39° Northeast 520 598 30,000 -2,656 Descending FlightAware ADS-B (KSNC)
Thu 09:50:06 PM 40.7648 -73.5421 39° Northeast 520 598 28,700 -2,522 Descending FlightAware ADS-B (KWWD)
Thu 09:50:45 PM 40.8348 -73.4667 39° Northeast 497 572 27,100 -1,291 Descending FlightAware ADS-B (KSNC)
Thu 09:51:25 PM 40.9007 -73.3772 46° Northeast 499 574 27,000 -375 Descending FlightAware ADS-B (KSNC)
Thu 09:52:05 PM 40.9600 -73.2894 48° Northeast 479 551 26,600 -750 Descending FlightAware ADS-B (KSNC)
Thu 09:52:45 PM 41.0188 -73.2027 48° Northeast 485 558 26,000 -1,200 Descending FlightAware ADS-B (KSNC)
Thu 09:53:25 PM 41.0793 -73.1136 48° Northeast 489 563 25,000 -1,462 Descending FlightAware ADS-B (KSNC)
Thu 09:54:03 PM 41.1357 -73.0295 48° Northeast 483 556 24,100 -1,500 Descending FlightAware ADS-B (KSNC)
Thu 09:54:45 PM 41.1977 -72.9367 48° Northeast 480 552 23,000 -786 Descending FlightAware ADS-B (KSNC)
Thu 09:55:27 PM 41.2487 -72.8335 57° Northeast 493 567 23,000  Level FlightAware ADS-B (KSNC)
Thu 09:56:06 PM 41.2829 -72.7414 64° Northeast 492 566 23,000  Level FlightAware ADS-B (KSNC)
Thu 09:56:44 PM 41.3214 -72.6379 64° Northeast 496 571 23,000  Level FlightAware ADS-B (KSNC)
Thu 09:57:25 PM 41.3687 -72.5101 64° Northeast 496 571 23,000  Level FlightAware ADS-B (KSNC)
Thu 09:58:06 PM 41.4088 -72.4006 64° Northeast 495 570 23,000 -525 Level FlightAware ADS-B (KSNC)
Thu 09:58:45 PM 41.4481 -72.2936 64° Northeast 484 557 22,300 -1,403 Descending FlightAware ADS-B (KSNC)
Thu 09:59:23 PM 41.4865 -72.1893 64° Northeast 484 557 21,200 -1,519 Descending FlightAware ADS-B (KSNC)
Thu 10:00:04 PM 41.5250 -72.0842 64° Northeast 475 547 20,300 -1,165 Descending FlightAware ADS-B (KSNC)
Thu 10:01:06 PM 41.5784 -71.9259 66° East 462 532 19,200 -1,077 Descending FlightAware ADS-B (KSNC)
Thu 10:02:01 PM 41.6037 -71.8402 68° East 458 527 18,200 -1,008 Descending FlightAware ADS-B (KOWD)
Thu 10:03:05 PM 41.6724 -71.6065 68° East 442 509 17,200 -1,296 Descending FlightAware ADS-B
Thu 10:04:06 PM 41.7160 -71.4579 68° East 423 487 15,500 -1,891 Descending FlightAware ADS-B (KOWD)
Thu 10:04:37 PM 41.7427 -71.3874 63° Northeast 409 471 14,300 -2,250 Descending FlightAware ADS-B
Thu 10:05:18 PM 41.7826 -71.2938 60° Northeast 398 458 12,800 -2,222 Descending FlightAware ADS-B
Thu 10:05:58 PM 41.8188 -71.2094 60° Northeast 393 452 11,300 -1,562 Descending FlightAware ADS-B
Thu 10:06:31 PM 41.8204 -71.2056 61° Northeast 367 422 10,900 -667 Descending FlightAware ADS-B (KOWD)
Thu 10:07:10 PM 41.8772 -71.0722 60° Northeast 349 402 10,500 -632 Descending FlightAware ADS-B (KOWD)
Thu 10:07:28 PM 41.8928 -71.0362 60° Northeast 331 381 10,300 -621 Descending FlightAware ADS-B
Thu 10:08:08 PM 41.9230 -70.9656 60° Northeast 314 361 9,900 -590 Descending FlightAware ADS-B (ESTA / AGH)
Thu 10:08:29 PM 41.9364 -70.9348 60° Northeast 310 357 9,700 -558 Descending FlightAware ADS-B (ESTA / AGH)
Thu 10:08:51 PM 41.9529 -70.8968 60° Northeast 308 354 9,500 -462 Descending FlightAware ADS-B (KOWD)
Thu 10:09:08 PM 41.9635 -70.8719 60° Northeast 307 353 9,400 -500 Descending FlightAware ADS-B (KOWD)
Thu 10:09:27 PM 41.9778 -70.8388 60° Northeast 306 352 9,200 -632 Descending FlightAware ADS-B (ESTA / AGH)
Thu 10:09:46 PM 41.9899 -70.8106 60° Northeast 303 349 9,000 -632 Descending FlightAware ADS-B (ESTA / AGH)
Thu 10:10:05 PM 42.0049 -70.7759 60° Northeast 301 346 8,800 -600 Descending FlightAware ADS-B (ESTA / AGH)
Thu 10:10:26 PM 42.0185 -70.7509 54° Northeast 295 339 8,600 -558 Descending FlightAware ADS-B (ESTA / AGH)
Thu 10:10:48 PM 42.0417 -70.7162 48° Northeast 293 337 8,400 -439 Descending FlightAware ADS-B (ESTA / AGH)
Thu 10:11:07 PM 42.0572 -70.6931 48° Northeast 293 337 8,300 -581 Descending FlightAware ADS-B (ESTA / AGH)
Thu 10:11:19 PM 42.0708 -70.6726 48° Northeast 293 337 8,100 -522 Descending FlightAware ADS-B (KOWD)
Thu 10:11:30 PM 42.0824 -70.6588 42° Northeast 287 330 8,100 -828 Level FlightAware ADS-B
Thu 10:11:48 PM 42.1024 -70.6422 32° Northeast 283 326 7,700 -1,273 Descending FlightAware ADS-B (ESTA / AGH)
Thu 10:12:03 PM 42.1189 -70.6286 31° Northeast 282 325 7,400 -1,000 Descending FlightAware ADS-B (KOWD)
Thu 10:12:24 PM 42.1407 -70.6106 31° Northeast 277 319 7,100 -750 Descending FlightAware ADS-B (KOWD)
Thu 10:12:27 PM 42.1446 -70.6075 31° Northeast 277 319 7,100 -1,043 Level FlightAware ADS-B (EPKK / KRK)
Thu 10:12:47 PM 42.1677 -70.5889 31° Northeast 269 310 6,700 -1,333 Descending FlightAware ADS-B
Thu 10:13:03 PM 42.1660 -70.5902 210° Southwest 274 315 6,300 -1,412 Descending FlightAware ADS-B (EPKK / KRK)
Thu 10:13:21 PM 42.2057 -70.5623 28° Northeast 259 298 5,900 -900 Descending FlightAware ADS-B (EPKK / KRK)
Thu 10:13:43 PM 42.2283 -70.5569 10° North 241 277 5,700 -558 Descending FlightAware ADS-B (EPKK / KRK)
Thu 10:14:04 PM 42.2515 -70.5514 10° North 225 259 5,500 -732 Descending FlightAware ADS-B (EPKK / KRK)
Thu 10:14:24 PM 42.2672 -70.5515 360° North 207 238 5,200 -889 Descending FlightAware ADS-B (EPKK / KRK)
Thu 10:14:31 PM 42.2772 -70.5589 331° Northwest 200 230 5,100 -1,463 Descending FlightAware ADS-B
Thu 10:15:05 PM 42.2985 -70.5854 317° Northwest 202 232 4,200 -1,444 Descending FlightAware ADS-B (EPKK / KRK)
Thu 10:15:25 PM 42.3129 -70.6032 318° Northwest 200 230 3,800 -1,077 Descending FlightAware ADS-B (EPKK / KRK)
Thu 10:15:44 PM 42.3262 -70.6199 317° Northwest 191 220 3,500 -878 Descending FlightAware ADS-B (EPKK / KRK)
Thu 10:16:06 PM 42.3394 -70.6365 317° Northwest 183 211 3,200 -857 Descending FlightAware ADS-B (EPKK / KRK)
Thu 10:16:26 PM 42.3525 -70.6528 317° Northwest 179 206 2,900 -600 Descending FlightAware ADS-B (EPKK / KRK)
Thu 10:16:46 PM 42.3640 -70.6670 318° Northwest 175 201 2,800 -133 Descending FlightAware ADS-B (EPKK / KRK)
Thu 10:17:11 PM 42.3771 -70.6882 310° West 174 200 2,800  Level FlightAware ADS-B (EPKK / KRK)
Thu 10:17:31 PM 42.3843 -70.7074 297° West 173 199 2,800  Level FlightAware ADS-B (EPKK / KRK)
Thu 10:17:51 PM 42.3897 -70.7265 291° West 173 199 2,800  Level FlightAware ADS-B (EPKK / KRK)
Thu 10:18:15 PM 42.3936 -70.7538 281° West 173 199 2,800  Level FlightAware ADS-B (EPKK / KRK)
Thu 10:18:36 PM 42.3951 -70.7744 276° West 170 196 2,800 -146 Level FlightAware ADS-B (EPKK / KRK)
Thu 10:18:56 PM 42.3938 -70.7955 265° West 160 184 2,700 -600 Descending FlightAware ADS-B (EPKK / KRK)
Thu 10:19:16 PM 42.3908 -70.8159 259° West 159 183 2,400 -750 Descending FlightAware ADS-B (EPKK / KRK)
Thu 10:19:36 PM 42.3872 -70.8345 255° West 155 178 2,200 -732 Descending FlightAware ADS-B (EPKK / KRK)
Thu 10:19:57 PM 42.3838 -70.8540 257° West 154 177 1,900 -878 Descending FlightAware ADS-B (EPKK / KRK)
Thu 10:20:17 PM 42.3805 -70.8724 257° West 154 177 1,600 -840 Descending FlightAware ADS-B (EPKK / KRK)
Thu 10:20:47 PM 42.3759 -70.8999 257° West 138 159 1,200 -787 Descending FlightAware ADS-B (EPKK / KRK)
Thu 10:21:18 PM 42.3716 -70.9237 256° West 121 139 800 -706 Descending FlightAware ADS-B (EPKK / KRK)
Thu 10:21:38 PM 42.3689 -70.9387 256° West 123 142 600 -627 Descending FlightAware ADS-B (EPKK / KRK)
Thu 10:22:25 PM 42.3661 -70.9546 257° West 124 143 100 -333 Descending FlightAware ADS-B (EPKK / KRK)
Thu 10:23:08 PM 42.3606 -70.9964 257° West 123 142 100  Level Boston Center

Login

Don't have an account? Register now (free) for customized features, flight alerts, and more!